Observations for Trim Market St
| Time | AQI | Temp °C | Hum % | Pres Pa | CO μg/m³ | H₂S μg/m³ | NO μg/m³ | NO₂ μg/m³ | O₃ μg/m³ | SO₂ μg/m³ | PM1 μg/m³ | PM2.5 μg/m³ | PM10 μg/m³ |
|---|---|---|---|---|---|---|---|---|---|---|---|---|---|
| Tuesday 25 August 2026 | |||||||||||||
| 20:31 | 3 | 17.3 | 77 | 2,147,483,647 | 0.22 | 0 | 1.23 | 29.17 | 49.1 | 0 | 6.41 | 6.53 | 10.46 |
| 20:30 | 3 | 17.4 | 77 | 2,147,483,647 | 0.21 | 0 | 1.3 | 42.58 | 31.88 | 0 | 4.28 | 6.54 | 11.05 |
| 20:29 | 3 | 17.4 | 77 | 2,147,483,647 | 0.21 | 0 | 1.2 | 25.94 | 51.43 | 0 | 6.41 | 8.93 | 12.81 |
| 20:28 | 3 | 17.4 | 77 | 2,147,483,647 | 0.21 | 0 | 1.19 | 29.03 | 48.55 | 0 | 6.41 | 7.5 | 11.05 |
| 20:27 | 3 | 17.4 | 77 | 2,147,483,647 | 0.21 | 0 | 1.3 | 29.34 | 51.9 | 0 | 5.7 | 6.56 | 9.88 |
| 20:26 | 3 | 17.4 | 77 | 2,147,483,647 | 0.2 | 0 | 1.34 | 23.95 | 53.17 | 0 | 6.41 | 7.51 | 11.06 |
| 20:25 | 3 | 17.4 | 76 | 2,147,483,647 | 0.2 | 0 | 1.5 | 26.42 | 52.54 | 0 | 6.41 | 10.38 | 14.59 |
| 20:24 | 3 | 17.4 | 76 | 2,147,483,647 | 0.2 | 0 | 1.47 | 27.99 | 49.59 | 0 | 6.41 | 8.48 | 12.24 |
| 20:23 | 3 | 17.5 | 76 | 2,147,483,647 | 0.19 | 0 | 1.44 | 36.01 | 50.44 | 0 | 5.7 | 7.05 | 10.48 |
| 20:22 | 3 | 17.4 | 76 | 2,147,483,647 | 0.19 | 0 | 1.54 | 31.4 | 48.39 | 0 | 6.41 | 10.87 | 15.79 |
| 20:21 | 3 | 17.5 | 76 | 2,147,483,647 | 0.18 | 0 | 1.63 | 33.84 | 48.67 | 0 | 7.13 | 10.41 | 15.22 |
| 20:20 | 3 | 17.5 | 76 | 960 | 0.22 | 0 | 1.47 | 32.75 | 49.14 | 0 | 7.13 | 8.03 | 12.26 |
| 20:19 | 3 | 17.5 | 76 | 2,954 | 0.29 | 0 | 1.41 | 34.17 | 44.11 | 0 | 4.99 | 7.08 | 11.08 |
| 20:18 | 3 | 17.5 | 76 | 4,822 | 0.57 | 0 | 1.43 | 36.66 | 46.05 | 0 | 6.41 | 7.56 | 11.09 |
| 20:15 | 3 | 17.6 | 76 | 6,668 | 0.19 | 0 | 1.37 | 28.68 | 52.93 | 0 | 7.84 | 9.49 | 13.47 |
| 20:14 | 3 | 17.6 | 75 | 8,609 | 0.2 | 0 | 1.37 | 37.27 | 47.57 | 0 | 6.41 | 8.54 | 14.67 |
| 20:13 | 3 | 17.6 | 75 | 10,897 | 0.21 | 0 | 1.44 | 28.31 | 53.34 | 0 | 7.84 | 8.55 | 14.08 |
| 20:12 | 3 | 17.6 | 75 | 13,109 | 0.18 | 0 | 1.38 | 32.23 | 52.79 | 0 | 7.13 | 9.52 | 14.09 |
| 20:11 | 3 | 17.6 | 75 | 15,461 | 0.21 | 0 | 1.44 | 44.36 | 45.58 | 0 | 7.13 | 8.09 | 12.91 |
| 20:10 | 3 | 17.7 | 75 | 17,800 | 0.19 | 0 | 1.24 | 34.65 | 49.96 | 0 | 7.13 | 9.06 | 14.71 |